Time;durP1;ratioP1;P1;durP2;ratioP2;P2;SDS_P1;SDS_P2;PMS_P1;PMS_P2;Temp;Humidity;BMP_temperature;BMP_pressure;BME280_temperature;BME280_humidity;BME280_pressure;Samples;Min_cycle;Max_cycle;Signal;HPM_P1;HPM_P2
2022/06/05 00:00:18;;;;;;;14.25;10.52;;;;;;;;;;5063716;28;20025;-60
2022/06/05 00:03:01;;;;;;;13.88;10.98;;;;;;;;;;5059386;28;20032;-61
2022/06/05 00:05:36;;;;;;;13.95;10.80;;;;;;;;;;5060981;28;20028;-60
2022/06/05 00:08:25;;;;;;;13.77;10.52;;;;;;;;;;5060226;28;20039;-59
2022/06/05 00:10:57;;;;;;;14.63;10.65;;;;;;;;;;5064822;28;20086;-60
2022/06/05 00:13:49;;;;;;;14.27;10.63;;;;;;;;;;5063215;28;20364;-61
2022/06/05 00:16:17;;;;;;;13.70;10.15;;;;;;;;;;5064396;28;20032;-60
2022/06/05 00:18:44;;;;;;;14.52;11.00;;;;;;;;;;5066632;28;20498;-60
2022/06/05 00:21:10;;;;;;;14.57;11.50;;;;;;;;;;5065330;28;20076;-60
2022/06/05 00:23:37;;;;;;;17.33;11.80;;;;;;;;;;5063841;28;20048;-60
2022/06/05 00:26:07;;;;;;;14.35;11.18;;;;;;;;;;5071269;28;20028;-60
2022/06/05 00:28:38;;;;;;;15.50;11.68;;;;;;;;;;5070438;28;20039;-60
2022/06/05 00:31:23;;;;;;;15.25;11.27;;;;;;;;;;5067930;28;20029;-60
2022/06/05 00:33:48;;;;;;;13.13;11.10;;;;;;;;;;5070423;28;20131;-60
2022/06/05 00:36:19;;;;;;;13.82;10.55;;;;;;;;;;5070785;28;20115;-60
2022/06/05 00:38:57;;;;;;;15.50;11.20;;;;;;;;;;5066606;28;20028;-60
2022/06/05 00:41:42;;;;;;;17.08;11.85;;;;;;;;;;5062242;28;20029;-60
2022/06/05 00:44:13;;;;;;;14.75;11.23;;;;;;;;;;5065938;28;20032;-60
2022/06/05 00:46:40;;;;;;;14.90;11.68;;;;;;;;;;5068184;28;20032;-60
2022/06/05 00:49:06;;;;;;;15.20;11.13;;;;;;;;;;5062122;28;20021;-59
2022/06/05 00:51:32;;;;;;;16.23;11.80;;;;;;;;;;5063672;28;20060;-60
2022/06/05 00:53:58;;;;;;;14.02;11.80;;;;;;;;;;5065885;28;20059;-59
2022/06/05 00:56:24;;;;;;;14.38;11.45;;;;;;;;;;5062724;28;20508;-60
2022/06/05 00:58:52;;;;;;;15.43;12.27;;;;;;;;;;5055627;28;20090;-60
2022/06/05 01:01:17;;;;;;;16.02;11.80;;;;;;;;;;5055604;28;20056;-59
2022/06/05 01:03:42;;;;;;;18.40;12.10;;;;;;;;;;5065471;28;20074;-60
2022/06/05 01:06:08;;;;;;;16.25;11.43;;;;;;;;;;5057230;28;20104;-59
2022/06/05 01:08:34;;;;;;;16.85;12.48;;;;;;;;;;5056912;28;20085;-60
2022/06/05 01:11:26;;;;;;;17.77;12.73;;;;;;;;;;5063807;28;20078;-60
2022/06/05 01:14:07;;;;;;;18.85;13.35;;;;;;;;;;5065959;28;20106;-60
2022/06/05 01:16:40;;;;;;;19.63;13.48;;;;;;;;;;5068906;28;20024;-60
2022/06/05 01:19:17;;;;;;;20.77;13.48;;;;;;;;;;5065423;28;20369;-60
2022/06/05 01:22:01;;;;;;;17.45;13.23;;;;;;;;;;5064431;28;20028;-60
2022/06/05 01:24:39;;;;;;;19.15;13.55;;;;;;;;;;5063875;28;20029;-60
2022/06/05 01:27:09;;;;;;;18.38;12.63;;;;;;;;;;5072065;28;20043;-60
2022/06/05 01:29:44;;;;;;;20.63;12.13;;;;;;;;;;5068203;28;20066;-60
2022/06/05 01:32:15;;;;;;;15.82;12.63;;;;;;;;;;5068737;28;20058;-60
2022/06/05 01:34:43;;;;;;;16.92;12.45;;;;;;;;;;5065799;28;20379;-60
2022/06/05 01:37:27;;;;;;;17.73;12.85;;;;;;;;;;5070555;28;20035;-60
2022/06/05 01:40:01;;;;;;;18.02;12.65;;;;;;;;;;5068208;28;20039;-60
2022/06/05 01:42:40;;;;;;;16.77;12.30;;;;;;;;;;5064625;28;20027;-62
2022/06/05 01:45:34;;;;;;;17.52;12.73;;;;;;;;;;5059984;28;20021;-59
2022/06/05 01:48:02;;;;;;;15.52;12.18;;;;;;;;;;5060276;28;20496;-60
2022/06/05 01:50:38;;;;;;;16.35;11.90;;;;;;;;;;5059594;28;20029;-59
2022/06/05 01:53:18;;;;;;;16.60;12.27;;;;;;;;;;5063266;28;20040;-60
2022/06/05 01:55:51;;;;;;;17.10;12.63;;;;;;;;;;5060216;28;20112;-59
2022/06/05 01:58:21;;;;;;;14.77;11.43;;;;;;;;;;5063860;28;20400;-60
2022/06/05 02:00:53;;;;;;;15.45;12.05;;;;;;;;;;5062953;28;20052;-59
2022/06/05 02:03:33;;;;;;;17.65;12.43;;;;;;;;;;5057200;28;20484;-62
2022/06/05 02:06:04;;;;;;;17.35;11.23;;;;;;;;;;5058444;28;20067;-61
2022/06/05 02:08:35;;;;;;;14.00;11.27;;;;;;;;;;5061899;28;20396;-60
2022/06/05 02:11:10;;;;;;;17.77;12.43;;;;;;;;;;5061260;28;20436;-60
2022/06/05 02:13:35;;;;;;;14.95;11.50;;;;;;;;;;5064535;28;20493;-60
2022/06/05 02:16:01;;;;;;;15.75;12.13;;;;;;;;;;5061855;28;20116;-59
2022/06/05 02:18:27;;;;;;;14.68;11.20;;;;;;;;;;5071562;28;20470;-60
2022/06/05 02:20:52;;;;;;;14.60;11.20;;;;;;;;;;5065216;28;20111;-60
2022/06/05 02:23:21;;;;;;;16.23;11.10;;;;;;;;;;5073895;28;20025;-59
2022/06/05 02:25:48;;;;;;;17.80;11.80;;;;;;;;;;5072654;28;20050;-59
2022/06/05 02:28:16;;;;;;;15.05;11.38;;;;;;;;;;5076594;28;20039;-59
2022/06/05 02:31:12;;;;;;;15.55;12.13;;;;;;;;;;5070419;28;20044;-60
2022/06/05 02:33:54;;;;;;;14.27;11.27;;;;;;;;;;5067729;28;20083;-60
2022/06/05 02:36:31;;;;;;;17.75;11.98;;;;;;;;;;5071054;28;20028;-61
2022/06/05 02:39:03;;;;;;;20.23;13.13;;;;;;;;;;5068252;28;20059;-59
2022/06/05 02:41:54;;;;;;;17.58;13.05;;;;;;;;;;5064106;28;20029;-59
2022/06/05 02:44:37;;;;;;;16.20;13.10;;;;;;;;;;5066332;28;20070;-61
2022/06/05 02:47:16;;;;;;;20.05;13.70;;;;;;;;;;5063035;28;20033;-60
2022/06/05 02:49:58;;;;;;;18.42;12.98;;;;;;;;;;5068078;28;20025;-60
2022/06/05 02:52:24;;;;;;;16.95;12.82;;;;;;;;;;5073664;28;20020;-60
2022/06/05 02:55:07;;;;;;;15.15;12.80;;;;;;;;;;5064715;28;20395;-60
2022/06/05 02:57:33;;;;;;;15.45;12.35;;;;;;;;;;5064130;28;20127;-59
2022/06/05 02:59:58;;;;;;;19.95;13.65;;;;;;;;;;5062837;28;20530;-60
2022/06/05 03:05:08;;;;;;;16.80;13.45;;;;;;;;;;5057163;28;20086;-60
2022/06/05 03:07:33;;;;;;;19.52;12.63;;;;;;;;;;5064077;28;20023;-60
2022/06/05 03:09:59;;;;;;;16.98;12.57;;;;;;;;;;5065436;28;20032;-59
2022/06/05 03:12:24;;;;;;;16.73;13.65;;;;;;;;;;5066127;28;20518;-60
2022/06/05 03:14:50;;;;;;;17.20;13.45;;;;;;;;;;5067588;28;20033;-60
2022/06/05 03:17:15;;;;;;;15.50;12.63;;;;;;;;;;5072177;28;20024;-60
2022/06/05 03:19:42;;;;;;;16.35;13.10;;;;;;;;;;5065542;28;20056;-60
2022/06/05 03:22:07;;;;;;;17.50;12.95;;;;;;;;;;5068726;28;20039;-60
2022/06/05 03:24:33;;;;;;;16.92;13.13;;;;;;;;;;5069520;28;20036;-60
2022/06/05 03:26:58;;;;;;;18.90;12.30;;;;;;;;;;5068202;28;20059;-60
2022/06/05 03:29:24;;;;;;;18.00;12.93;;;;;;;;;;5067098;28;20043;-59
2022/06/05 03:31:49;;;;;;;19.15;13.15;;;;;;;;;;5070194;28;20030;-60
2022/06/05 03:34:16;;;;;;;17.35;12.55;;;;;;;;;;5067490;28;20407;-59
2022/06/05 03:36:42;;;;;;;19.95;14.02;;;;;;;;;;5067784;28;20047;-60
2022/06/05 03:39:09;;;;;;;17.27;13.43;;;;;;;;;;5067565;28;20526;-59
2022/06/05 03:41:35;;;;;;;20.40;13.30;;;;;;;;;;5064105;28;20033;-60
2022/06/05 03:44:00;;;;;;;18.50;13.23;;;;;;;;;;5064687;28;20040;-59
2022/06/05 03:46:26;;;;;;;19.17;12.85;;;;;;;;;;5061159;28;20139;-59
2022/06/05 03:48:51;;;;;;;17.02;12.43;;;;;;;;;;5065821;28;20032;-59
2022/06/05 03:51:19;;;;;;;18.90;13.90;;;;;;;;;;5058825;28;20039;-59
2022/06/05 03:53:45;;;;;;;16.95;12.63;;;;;;;;;;5063822;28;20414;-60
2022/06/05 03:56:15;;;;;;;22.15;13.43;;;;;;;;;;5060517;28;20103;-60
2022/06/05 03:58:42;;;;;;;20.42;12.80;;;;;;;;;;5061689;28;20020;-60
2022/06/05 04:01:09;;;;;;;18.08;12.82;;;;;;;;;;5058121;28;20040;-59
2022/06/05 04:03:35;;;;;;;16.98;13.98;;;;;;;;;;5064107;28;20044;-59
2022/06/05 04:06:00;;;;;;;18.33;13.52;;;;;;;;;;5060282;28;20020;-59
2022/06/05 04:08:26;;;;;;;16.50;12.73;;;;;;;;;;5066568;28;20483;-60
2022/06/05 04:10:52;;;;;;;17.90;12.65;;;;;;;;;;5063103;28;20036;-60
2022/06/05 04:13:17;;;;;;;16.30;11.98;;;;;;;;;;5066952;28;20051;-60
2022/06/05 04:15:42;;;;;;;18.10;12.02;;;;;;;;;;5066007;28;20521;-60
2022/06/05 04:18:08;;;;;;;17.40;12.40;;;;;;;;;;5066644;28;20028;-59
2022/06/05 04:20:37;;;;;;;16.70;12.65;;;;;;;;;;5064825;28;20336;-59
2022/06/05 04:23:03;;;;;;;14.43;12.38;;;;;;;;;;5066634;28;20491;-60
2022/06/05 04:25:29;;;;;;;15.45;12.20;;;;;;;;;;5068958;28;20392;-60
2022/06/05 04:27:56;;;;;;;17.88;13.93;;;;;;;;;;5070108;28;20044;-60
2022/06/05 04:30:22;;;;;;;19.42;13.90;;;;;;;;;;5072037;28;20042;-60
2022/06/05 04:32:47;;;;;;;17.75;13.57;;;;;;;;;;5070205;28;20029;-61
2022/06/05 04:35:12;;;;;;;18.98;14.23;;;;;;;;;;5063189;28;20107;-60
2022/06/05 04:37:38;;;;;;;20.83;15.00;;;;;;;;;;5065928;28;20396;-60
2022/06/05 04:40:05;;;;;;;20.33;15.25;;;;;;;;;;5064865;28;20066;-60
2022/06/05 04:42:30;;;;;;;20.60;14.65;;;;;;;;;;5062218;28;20056;-60
2022/06/05 04:44:56;;;;;;;19.35;14.60;;;;;;;;;;5066903;28;20028;-61
2022/06/05 04:47:22;;;;;;;20.48;14.50;;;;;;;;;;5063556;28;20032;-59
2022/06/05 04:49:47;;;;;;;20.42;14.85;;;;;;;;;;5070036;28;20510;-60
2022/06/05 04:52:12;;;;;;;20.27;15.35;;;;;;;;;;5062253;28;20025;-60
2022/06/05 04:54:38;;;;;;;20.48;14.57;;;;;;;;;;5060551;28;20021;-60
2022/06/05 04:57:04;;;;;;;19.40;14.60;;;;;;;;;;5058451;28;20078;-61
2022/06/05 04:59:30;;;;;;;18.45;14.75;;;;;;;;;;5061752;28;20103;-59
2022/06/05 05:01:55;;;;;;;19.27;15.30;;;;;;;;;;5061447;28;20423;-60
2022/06/05 05:04:20;;;;;;;22.15;14.43;;;;;;;;;;5060472;28;20056;-59
2022/06/05 05:06:46;;;;;;;18.90;15.40;;;;;;;;;;5064219;28;20483;-59
2022/06/05 05:09:12;;;;;;;20.55;15.43;;;;;;;;;;5066065;28;20035;-59
2022/06/05 05:11:37;;;;;;;20.38;15.02;;;;;;;;;;5061838;28;20486;-59
2022/06/05 05:14:03;;;;;;;18.75;14.75;;;;;;;;;;5065288;28;20036;-59
2022/06/05 05:16:30;;;;;;;21.08;15.40;;;;;;;;;;5060594;28;20031;-59
2022/06/05 05:18:56;;;;;;;19.92;14.95;;;;;;;;;;5070158;28;20025;-59
2022/06/05 05:21:23;;;;;;;20.00;15.57;;;;;;;;;;5070538;28;20050;-59
2022/06/05 05:23:49;;;;;;;18.52;14.07;;;;;;;;;;5067580;28;20028;-59
2022/06/05 05:26:21;;;;;;;20.92;15.15;;;;;;;;;;5066211;28;20040;-62
2022/06/05 05:28:47;;;;;;;22.00;14.93;;;;;;;;;;5069026;28;20041;-59
2022/06/05 05:31:17;;;;;;;20.00;15.02;;;;;;;;;;5069993;28;20038;-59
2022/06/05 05:33:43;;;;;;;20.65;14.52;;;;;;;;;;5066387;28;20033;-59
2022/06/05 05:36:09;;;;;;;20.23;14.48;;;;;;;;;;5068137;28;20223;-59
2022/06/05 05:38:35;;;;;;;18.33;14.05;;;;;;;;;;5068848;28;20109;-59
2022/06/05 05:43:44;;;;;;;25.00;15.05;;;;;;;;;;5067373;28;20087;-60
2022/06/05 05:46:11;;;;;;;22.15;14.13;;;;;;;;;;5065847;28;20037;-60
2022/06/05 05:48:38;;;;;;;22.55;11.85;;;;;;;;;;5070703;28;20028;-59
2022/06/05 05:51:09;;;;;;;20.30;11.25;;;;;;;;;;5060593;28;20032;-61
2022/06/05 05:53:34;;;;;;;11.05;7.25;;;;;;;;;;5061681;28;20036;-63
2022/06/05 05:56:09;;;;;;;7.97;4.97;;;;;;;;;;5056796;28;20029;-64
2022/06/05 05:58:35;;;;;;;6.22;4.28;;;;;;;;;;5066099;28;20039;-65
2022/06/05 06:01:03;;;;;;;8.68;5.03;;;;;;;;;;5056268;28;20724;-64
2022/06/05 06:03:29;;;;;;;7.25;4.07;;;;;;;;;;5058897;28;20190;-64
2022/06/05 06:05:56;;;;;;;7.65;5.00;;;;;;;;;;5060594;28;20107;-64
2022/06/05 06:08:22;;;;;;;6.53;5.03;;;;;;;;;;5071499;28;20053;-64
2022/06/05 06:10:47;;;;;;;9.55;5.47;;;;;;;;;;5065053;28;20431;-64
2022/06/05 06:13:12;;;;;;;10.48;5.40;;;;;;;;;;5061447;28;20029;-64
2022/06/05 06:15:38;;;;;;;5.78;4.88;;;;;;;;;;5064449;28;20391;-63
2022/06/05 06:18:03;;;;;;;6.25;4.38;;;;;;;;;;5064284;28;20060;-63
2022/06/05 06:20:29;;;;;;;5.18;3.38;;;;;;;;;;5066668;28;20085;-62
2022/06/05 06:22:54;;;;;;;6.88;4.20;;;;;;;;;;5064454;28;20032;-62
2022/06/05 06:25:19;;;;;;;8.93;5.75;;;;;;;;;;5063912;28;20499;-62
2022/06/05 06:27:45;;;;;;;6.18;4.50;;;;;;;;;;5067484;28;20025;-65
2022/06/05 06:30:11;;;;;;;6.35;4.10;;;;;;;;;;5070440;28;20511;-63
2022/06/05 06:32:36;;;;;;;4.85;3.70;;;;;;;;;;5068103;28;20475;-63
2022/06/05 06:35:02;;;;;;;5.10;3.90;;;;;;;;;;5065792;28;20125;-61
2022/06/05 06:37:28;;;;;;;12.65;3.75;;;;;;;;;;5066416;28;20024;-61
2022/06/05 06:39:53;;;;;;;5.55;2.80;;;;;;;;;;5072002;28;20108;-61
2022/06/05 06:42:19;;;;;;;5.07;2.97;;;;;;;;;;5065944;28;20174;-61
2022/06/05 06:44:44;;;;;;;6.70;3.00;;;;;;;;;;5062125;28;20036;-61
2022/06/05 06:47:10;;;;;;;7.85;3.28;;;;;;;;;;5059077;28;20134;-62
2022/06/05 06:49:35;;;;;;;3.75;2.80;;;;;;;;;;5058408;28;20032;-62
2022/06/05 06:52:01;;;;;;;6.03;2.28;;;;;;;;;;5065571;28;20111;-62
2022/06/05 06:54:26;;;;;;;7.70;2.78;;;;;;;;;;5056229;28;20064;-62
2022/06/05 06:56:52;;;;;;;5.50;3.03;;;;;;;;;;5058610;28;20127;-63
2022/06/05 06:59:17;;;;;;;5.07;2.75;;;;;;;;;;5056671;28;20102;-64
2022/06/05 07:01:43;;;;;;;6.25;1.95;;;;;;;;;;5065779;28;20040;-62
2022/06/05 07:04:08;;;;;;;13.20;5.05;;;;;;;;;;5065193;28;20033;-62
2022/06/05 07:06:33;;;;;;;2.35;1.70;;;;;;;;;;5067255;28;20020;-62
2022/06/05 07:08:59;;;;;;;8.10;2.83;;;;;;;;;;5069707;28;20025;-62
2022/06/05 07:11:24;;;;;;;2.15;1.10;;;;;;;;;;5067372;28;20498;-62
2022/06/05 07:13:50;;;;;;;1.52;1.10;;;;;;;;;;5068237;28;20112;-62
2022/06/05 07:16:17;;;;;;;5.75;1.25;;;;;;;;;;5063414;28;20029;-62
2022/06/05 07:18:42;;;;;;;3.90;1.40;;;;;;;;;;5072053;28;20016;-64
2022/06/05 07:21:14;;;;;;;6.63;1.70;;;;;;;;;;5070908;28;20368;-62
2022/06/05 07:23:39;;;;;;;2.88;1.05;;;;;;;;;;5071132;28;20021;-61
2022/06/05 07:26:08;;;;;;;5.47;1.30;;;;;;;;;;5067726;28;20046;-61
2022/06/05 07:28:34;;;;;;;4.03;1.98;;;;;;;;;;5059468;28;20027;-61
2022/06/05 07:31:01;;;;;;;4.68;2.00;;;;;;;;;;5066678;28;20434;-61
2022/06/05 07:33:30;;;;;;;3.67;2.13;;;;;;;;;;5066666;28;20063;-61
2022/06/05 07:36:00;;;;;;;7.20;2.03;;;;;;;;;;5064474;28;20029;-61
2022/06/05 07:38:26;;;;;;;4.53;1.80;;;;;;;;;;5068224;28;20101;-61
2022/06/05 07:40:51;;;;;;;7.38;2.63;;;;;;;;;;5067060;28;20036;-61
2022/06/05 07:43:17;;;;;;;5.85;2.60;;;;;;;;;;5061149;28;20027;-61
2022/06/05 07:45:45;;;;;;;6.90;2.90;;;;;;;;;;5062937;28;20029;-61
2022/06/05 07:48:11;;;;;;;6.20;2.90;;;;;;;;;;5062178;28;20029;-62
2022/06/05 07:54:26;;;;;;;8.18;5.03;;;;;;;;;;5065977;28;20028;-61
2022/06/05 07:56:06;;;;;;;8.80;3.30;;;;;;;;;;5061993;28;20143;-61
2022/06/05 07:58:31;;;;;;;6.88;3.72;;;;;;;;;;5069718;28;20693;-61
2022/06/05 08:00:57;;;;;;;5.90;2.83;;;;;;;;;;5058420;28;20032;-61
2022/06/05 08:03:22;;;;;;;5.45;2.50;;;;;;;;;;5060108;28;20413;-62
2022/06/05 08:05:47;;;;;;;11.13;3.42;;;;;;;;;;5069751;28;20029;-60
2022/06/05 08:08:13;;;;;;;6.43;3.05;;;;;;;;;;5066049;28;20040;-60
2022/06/05 08:10:38;;;;;;;9.57;3.13;;;;;;;;;;5061220;28;20531;-60
2022/06/05 08:13:04;;;;;;;5.90;2.60;;;;;;;;;;5061543;28;20040;-60
2022/06/05 08:15:29;;;;;;;5.50;2.40;;;;;;;;;;5064118;28;20077;-60
2022/06/05 08:17:55;;;;;;;4.82;2.30;;;;;;;;;;5071721;28;20028;-59
2022/06/05 08:20:21;;;;;;;5.95;2.28;;;;;;;;;;5073401;28;20144;-60
2022/06/05 08:22:46;;;;;;;6.25;2.22;;;;;;;;;;5068968;28;20040;-60
2022/06/05 08:25:13;;;;;;;6.55;3.00;;;;;;;;;;5064787;28;20028;-60
2022/06/05 08:27:38;;;;;;;4.78;2.47;;;;;;;;;;5068689;28;20028;-59
2022/06/05 08:30:04;;;;;;;3.08;2.35;;;;;;;;;;5071634;28;20038;-60
2022/06/05 08:32:30;;;;;;;3.75;2.30;;;;;;;;;;5063169;28;20025;-60
2022/06/05 08:34:56;;;;;;;3.30;2.25;;;;;;;;;;5065905;28;20027;-60
2022/06/05 08:43:27;;;;;;;5.68;1.73;;;;;;;;;;5053131;28;20038;-61
2022/06/05 08:46:13;;;;;;;6.47;1.70;;;;;;;;;;5066566;28;20055;-60
2022/06/05 08:48:47;;;;;;;3.90;1.70;;;;;;;;;;5061573;28;20045;-61
2022/06/05 08:51:24;;;;;;;3.58;1.90;;;;;;;;;;5060110;28;20032;-60
2022/06/05 08:54:01;;;;;;;6.28;1.80;;;;;;;;;;5060402;28;20039;-60
2022/06/05 08:56:41;;;;;;;4.55;2.10;;;;;;;;;;5058781;28;20464;-60
2022/06/05 08:59:22;;;;;;;3.78;1.90;;;;;;;;;;5058951;28;20028;-60
2022/06/05 09:01:54;;;;;;;5.72;1.95;;;;;;;;;;5058312;28;20044;-60
2022/06/05 09:04:26;;;;;;;4.05;2.10;;;;;;;;;;5064806;28;20028;-58
2022/06/05 09:06:57;;;;;;;5.75;2.05;;;;;;;;;;5059993;28;20032;-57
2022/06/05 09:09:30;;;;;;;9.70;2.83;;;;;;;;;;5070445;28;20027;-58
2022/06/05 09:12:18;;;;;;;4.57;2.70;;;;;;;;;;5062776;28;20025;-57
2022/06/05 09:14:55;;;;;;;3.97;2.22;;;;;;;;;;5063956;28;20028;-58
2022/06/05 09:17:21;;;;;;;6.28;1.80;;;;;;;;;;5072454;28;20027;-58
2022/06/05 09:19:50;;;;;;;5.10;2.30;;;;;;;;;;5064582;28;20029;-58
2022/06/05 09:22:39;;;;;;;5.65;2.20;;;;;;;;;;5068852;28;20082;-57
2022/06/05 09:25:33;;;;;;;5.22;2.63;;;;;;;;;;5071772;28;20376;-58
2022/06/05 09:28:30;;;;;;;6.07;2.50;;;;;;;;;;5064004;28;20028;-58
2022/06/05 09:30:59;;;;;;;5.18;2.60;;;;;;;;;;5055028;28;20527;-59
2022/06/05 09:33:32;;;;;;;6.00;2.88;;;;;;;;;;5070796;28;20028;-59
2022/06/05 09:36:01;;;;;;;5.03;3.00;;;;;;;;;;5058036;28;20028;-58
2022/06/05 09:38:54;;;;;;;5.22;3.17;;;;;;;;;;5065828;28;20024;-58
2022/06/05 09:41:41;;;;;;;7.90;2.92;;;;;;;;;;5056854;28;20070;-58
2022/06/05 09:44:18;;;;;;;5.65;3.20;;;;;;;;;;5056279;28;20032;-58
2022/06/05 09:46:44;;;;;;;5.00;3.40;;;;;;;;;;5066866;28;20028;-58
2022/06/05 09:49:15;;;;;;;5.53;3.35;;;;;;;;;;5057705;28;20040;-58
2022/06/05 09:51:43;;;;;;;4.75;3.00;;;;;;;;;;5055660;28;20385;-58
2022/06/05 09:54:17;;;;;;;8.60;3.65;;;;;;;;;;5055267;28;20032;-58
2022/06/05 10:00:05;;;;;;;5.47;3.88;;;;;;;;;;5058331;28;20550;-58
2022/06/05 10:02:31;;;;;;;8.90;4.47;;;;;;;;;;5065248;28;20020;-58
2022/06/05 10:04:57;;;;;;;4.30;3.67;;;;;;;;;;5064580;28;20043;-57
2022/06/05 10:07:37;;;;;;;7.70;3.92;;;;;;;;;;5058210;28;20033;-57
2022/06/05 10:10:15;;;;;;;7.50;3.20;;;;;;;;;;5061242;28;20056;-57
2022/06/05 10:13:17;;;;;;;6.90;3.47;;;;;;;;;;5063036;28;20116;-58
2022/06/05 10:15:50;;;;;;;6.60;4.13;;;;;;;;;;5067820;28;20036;-58
2022/06/05 10:18:44;;;;;;;8.02;4.53;;;;;;;;;;5070172;28;20483;-58
2022/06/05 10:21:11;;;;;;;7.07;3.95;;;;;;;;;;5052461;28;20143;-57
2022/06/05 10:23:42;;;;;;;6.95;3.83;;;;;;;;;;5067440;28;20028;-59
2022/06/05 10:26:26;;;;;;;6.93;3.85;;;;;;;;;;5067068;28;20028;-58
2022/06/05 10:29:06;;;;;;;8.95;3.80;;;;;;;;;;5059853;28;20127;-60
2022/06/05 10:31:34;;;;;;;9.27;4.45;;;;;;;;;;5064709;28;20029;-59
2022/06/05 10:34:23;;;;;;;5.63;4.20;;;;;;;;;;5067089;28;20499;-58
2022/06/05 10:37:42;;;;;;;9.68;6.30;;;;;;;;;;5062413;28;20131;-58
2022/06/05 10:40:17;;;;;;;10.82;5.15;;;;;;;;;;5031819;28;20036;-59
2022/06/05 10:42:51;;;;;;;9.93;4.47;;;;;;;;;;5063388;28;20410;-59
2022/06/05 10:45:21;;;;;;;6.93;4.75;;;;;;;;;;5066716;28;20032;-58
2022/06/05 10:47:55;;;;;;;7.05;4.60;;;;;;;;;;5067444;28;20163;-59
2022/06/05 10:50:58;;;;;;;8.80;4.53;;;;;;;;;;5066294;28;20039;-59
2022/06/05 10:54:11;;;;;;;9.60;4.47;;;;;;;;;;5068143;28;20026;-58
2022/06/05 10:56:55;;;;;;;10.25;4.55;;;;;;;;;;5053449;28;20044;-57
2022/06/05 10:59:28;;;;;;;9.07;4.63;;;;;;;;;;5068391;28;20035;-58
2022/06/05 11:02:18;;;;;;;9.90;5.68;;;;;;;;;;5068339;28;20322;-59
2022/06/05 11:05:11;;;;;;;12.85;5.68;;;;;;;;;;5070323;28;20515;-59
2022/06/05 11:07:40;;;;;;;9.38;5.68;;;;;;;;;;5066440;28;20131;-60
2022/06/05 11:13:42;;;;;;;9.25;4.63;;;;;;;;;;5066708;28;20119;-60
2022/06/05 11:16:56;;;;;;;11.25;4.65;;;;;;;;;;5069359;28;20428;-60
2022/06/05 11:19:27;;;;;;;19.85;15.25;;;;;;;;;;5058209;28;20463;-61
2022/06/05 11:21:55;;;;;;;250.10;223.93;;;;;;;;;;5061000;28;20048;-61
2022/06/05 11:24:27;;;;;;;1640.57;845.42;;;;;;;;;;5062922;28;20346;-61
2022/06/05 11:27:08;;;;;;;1127.78;547.45;;;;;;;;;;5063725;28;20028;-60
2022/06/05 11:29:49;;;;;;;36.13;18.27;;;;;;;;;;5065353;28;20029;-60
2022/06/05 11:32:51;;;;;;;8.75;4.75;;;;;;;;;;5063939;28;20476;-61
2022/06/05 11:35:38;;;;;;;9.55;3.97;;;;;;;;;;5059713;28;20029;-60
2022/06/05 11:38:23;;;;;;;8.60;3.60;;;;;;;;;;5060527;28;20103;-60
2022/06/05 11:41:12;;;;;;;6.50;3.70;;;;;;;;;;5052676;28;20304;-60
2022/06/05 11:43:40;;;;;;;9.25;3.83;;;;;;;;;;5055738;28;20041;-60
2022/06/05 11:46:11;;;;;;;7.80;3.70;;;;;;;;;;5058388;28;20064;-61
2022/06/05 11:49:11;;;;;;;4.85;3.78;;;;;;;;;;5058738;28;20040;-59
2022/06/05 11:51:55;;;;;;;9.88;3.50;;;;;;;;;;5036499;28;20040;-61
2022/06/05 11:54:30;;;;;;;8.93;3.10;;;;;;;;;;5060527;28;20033;-60
2022/06/05 11:57:14;;;;;;;7.18;3.28;;;;;;;;;;5053823;28;20070;-60
2022/06/05 12:00:00;;;;;;;5.13;3.17;;;;;;;;;;5058839;28;20294;-60
2022/06/05 12:02:38;;;;;;;7.82;2.80;;;;;;;;;;5066635;28;20388;-60
2022/06/05 12:05:28;;;;;;;8.32;3.53;;;;;;;;;;5060351;28;20021;-61
2022/06/05 12:08:03;;;;;;;5.90;2.97;;;;;;;;;;5060107;28;20574;-60
2022/06/05 12:10:33;;;;;;;6.60;3.05;;;;;;;;;;5060879;28;20459;-60
2022/06/05 12:13:31;;;;;;;6.57;3.15;;;;;;;;;;5055202;28;20404;-60
2022/06/05 12:16:06;;;;;;;6.68;3.33;;;;;;;;;;5054717;28;20028;-59
2022/06/05 12:18:56;;;;;;;8.13;4.32;;;;;;;;;;5051674;28;20535;-60
2022/06/05 12:21:36;;;;;;;9.02;5.40;;;;;;;;;;5055177;28;20060;-59
2022/06/05 12:24:17;;;;;;;8.98;4.72;;;;;;;;;;5055415;28;20037;-59
2022/06/05 12:27:11;;;;;;;6.97;3.60;;;;;;;;;;5058148;28;20528;-59
2022/06/05 12:29:57;;;;;;;6.03;3.83;;;;;;;;;;5065538;28;20037;-59
2022/06/05 12:32:45;;;;;;;7.03;3.33;;;;;;;;;;5062923;28;20201;-59
2022/06/05 12:35:25;;;;;;;5.95;3.38;;;;;;;;;;5058437;28;20622;-60
2022/06/05 12:38:15;;;;;;;4.70;2.72;;;;;;;;;;5062140;28;20055;-60
2022/06/05 12:40:49;;;;;;;6.95;2.70;;;;;;;;;;5062113;28;20081;-60
2022/06/05 12:43:24;;;;;;;3.95;2.63;;;;;;;;;;5058489;28;20392;-59
2022/06/05 12:45:56;;;;;;;3.67;2.97;;;;;;;;;;5063861;28;20029;-59
2022/06/05 12:48:24;;;;;;;4.88;2.72;;;;;;;;;;5058101;28;20140;-59
2022/06/05 12:51:12;;;;;;;7.07;2.60;;;;;;;;;;5054809;28;20412;-59
2022/06/05 12:53:40;;;;;;;5.80;2.70;;;;;;;;;;5058508;28;20499;-59
2022/06/05 12:56:30;;;;;;;5.22;2.30;;;;;;;;;;5057982;28;20040;-60
2022/06/05 12:59:17;;;;;;;5.13;2.58;;;;;;;;;;5059132;28;20044;-59
2022/06/05 13:01:58;;;;;;;6.50;2.38;;;;;;;;;;5059352;28;20020;-59
2022/06/05 13:04:44;;;;;;;5.18;2.40;;;;;;;;;;5062265;28;20047;-59
2022/06/05 13:07:41;;;;;;;4.72;2.30;;;;;;;;;;5062601;28;20033;-59
2022/06/05 13:10:28;;;;;;;3.05;2.75;;;;;;;;;;5061095;28;20177;-60
2022/06/05 13:13:02;;;;;;;6.13;2.50;;;;;;;;;;5061747;28;20028;-60
2022/06/05 13:15:32;;;;;;;5.13;2.22;;;;;;;;;;5065264;28;20036;-60
2022/06/05 13:18:04;;;;;;;5.55;2.42;;;;;;;;;;5069940;28;20033;-60
2022/06/05 13:21:00;;;;;;;3.90;2.42;;;;;;;;;;5065453;28;20048;-60
2022/06/05 13:23:47;;;;;;;8.00;2.42;;;;;;;;;;5063471;28;20130;-60
2022/06/05 13:26:17;;;;;;;5.57;2.75;;;;;;;;;;5070269;28;20048;-60
2022/06/05 13:28:59;;;;;;;8.88;2.83;;;;;;;;;;5066056;28;20107;-61
2022/06/05 13:31:58;;;;;;;5.88;2.72;;;;;;;;;;5064440;28;20044;-60
2022/06/05 13:34:32;;;;;;;9.13;3.20;;;;;;;;;;5057370;28;20373;-62
2022/06/05 13:37:14;;;;;;;5.43;2.17;;;;;;;;;;5064800;28;20082;-60
2022/06/05 13:40:03;;;;;;;4.93;2.20;;;;;;;;;;5063379;28;20028;-60
2022/06/05 13:42:34;;;;;;;7.67;2.40;;;;;;;;;;5060443;28;20548;-60
2022/06/05 13:45:02;;;;;;;5.68;2.63;;;;;;;;;;5060031;28;20332;-59
2022/06/05 13:47:43;;;;;;;5.70;2.70;;;;;;;;;;5058865;28;20037;-59
2022/06/05 13:50:30;;;;;;;5.07;3.00;;;;;;;;;;5054958;28;20059;-60
2022/06/05 13:53:16;;;;;;;7.90;2.63;;;;;;;;;;5055815;28;20033;-60
2022/06/05 13:56:04;;;;;;;7.60;2.72;;;;;;;;;;5056719;28;20032;-60
2022/06/05 13:58:42;;;;;;;6.88;2.65;;;;;;;;;;5063155;28;20201;-59
2022/06/05 14:01:29;;;;;;;4.50;3.20;;;;;;;;;;5062104;28;20107;-60
2022/06/05 14:03:57;;;;;;;4.68;2.50;;;;;;;;;;5061077;28;20044;-59
2022/06/05 14:06:32;;;;;;;5.20;2.80;;;;;;;;;;5055747;28;20040;-60
2022/06/05 14:09:00;;;;;;;6.90;2.65;;;;;;;;;;5058897;28;20108;-60
2022/06/05 14:11:36;;;;;;;3.40;2.40;;;;;;;;;;5057609;28;20029;-59
2022/06/05 14:14:05;;;;;;;4.82;2.40;;;;;;;;;;5062431;28;20029;-59
2022/06/05 14:16:47;;;;;;;5.38;2.35;;;;;;;;;;5062556;28;20028;-60
2022/06/05 14:19:23;;;;;;;6.72;2.58;;;;;;;;;;5064105;28;20392;-59
2022/06/05 14:21:55;;;;;;;4.95;3.25;;;;;;;;;;5063939;28;20101;-59
2022/06/05 14:24:24;;;;;;;4.82;2.75;;;;;;;;;;5062840;28;20400;-59
2022/06/05 14:27:00;;;;;;;4.22;2.90;;;;;;;;;;5059859;28;20116;-60
2022/06/05 14:29:42;;;;;;;4.57;2.22;;;;;;;;;;5061364;28;20037;-59
2022/06/05 14:32:07;;;;;;;6.50;3.13;;;;;;;;;;5060049;28;20039;-60
2022/06/05 14:34:41;;;;;;;4.00;3.25;;;;;;;;;;5056124;28;20025;-57
2022/06/05 14:37:29;;;;;;;6.75;2.95;;;;;;;;;;5055534;28;20039;-56
2022/06/05 14:40:00;;;;;;;8.45;3.00;;;;;;;;;;5047274;28;20082;-57
2022/06/05 14:42:37;;;;;;;5.93;2.75;;;;;;;;;;5060765;28;20037;-58
2022/06/05 14:45:11;;;;;;;5.53;3.15;;;;;;;;;;5057800;28;20024;-58
2022/06/05 14:47:43;;;;;;;6.30;3.40;;;;;;;;;;5060296;28;20129;-59
2022/06/05 14:50:19;;;;;;;3.80;3.10;;;;;;;;;;5054228;28;20124;-56
2022/06/05 14:52:54;;;;;;;5.10;3.40;;;;;;;;;;5064265;28;20110;-58
2022/06/05 14:58:09;;;;;;;7.00;3.70;;;;;;;;;;5058969;28;20044;-57
2022/06/05 15:00:57;;;;;;;8.13;3.70;;;;;;;;;;5063930;28;20032;-59
2022/06/05 15:03:36;;;;;;;6.60;3.93;;;;;;;;;;5063271;28;20059;-59
2022/06/05 15:06:03;;;;;;;8.68;3.65;;;;;;;;;;5053170;28;20373;-60
2022/06/05 15:08:41;;;;;;;6.43;3.33;;;;;;;;;;5056191;28;20120;-60
2022/06/05 15:11:16;;;;;;;5.18;3.75;;;;;;;;;;5066123;28;20540;-59
2022/06/05 15:13:56;;;;;;;8.02;4.70;;;;;;;;;;5064460;28;20029;-59
2022/06/05 15:16:35;;;;;;;8.02;4.28;;;;;;;;;;5063059;28;20039;-60
2022/06/05 15:19:03;;;;;;;5.97;4.47;;;;;;;;;;5065657;28;20398;-60
2022/06/05 15:21:43;;;;;;;6.18;4.40;;;;;;;;;;5063568;28;20495;-58
2022/06/05 15:24:18;;;;;;;9.05;4.50;;;;;;;;;;5061831;28;20028;-59
2022/06/05 15:26:47;;;;;;;7.20;4.10;;;;;;;;;;5069482;28;20042;-60
2022/06/05 15:29:40;;;;;;;5.55;4.05;;;;;;;;;;5069632;28;20119;-60